Accueil
METAR-TAF:

METAR-TAF

Aéroports :

Aéroport de Grenoble Alpes Isère

Grenoble, France

latitude: 45-22N, longitude: 005-20E, altitude: 384 m

Observation

Le bulletin a été fait il y a 21 minutes, à 19:30 UTC
Vent 4 kt de est/sud-est
Température 10°C
Humidité 87%
Pression 1026 hPa
Visibilité: 2300 m
brume

METAR: LFLS 201930Z AUTO 11004KT 4700 2300 BR NSC 10/08 Q1026

Heure: 21:51 (19:51 UTC)

Prévision

Le bulletin a été fait il y a 5 heures et 51 minutes, à 14:00 UTC
Prévision valable du 20 à 15 UTC au 21 à 15 UTC
Vent 3 kt de direction variable
Visibilité: 8000 m
Temporairement
du 20 à 15 UTC au 20 à 17 UTC
Vent 10 kt de nord/nord-ouest
Temporairement
du 21 à 00 UTC au 21 à 10 UTC
Visibilité: 4000 m
brume
Probabilité 30% :
Temporairement
du 21 à 05 UTC au 21 à 09 UTC
Visibilité: 2000 m
Brouillard mince

TAF: LFLS 201400Z 2015/2115 VRB03KT 8000 NSC TEMPO 2015/2017 34010KT TEMPO 2100/2110 4000 BR PROB30 TEMPO 2105/2109 2000 MIFG

Observations et prévisions météorologiques de plus de 4000 aéroports (messages METAR et TAF).

Les stations disponibles sont représentées par des disques jaunes et rouges sur la carte.

Passer la souris dessus pour voir le nom de la station.

Cliquer dessus pour voir les observations et prévisions météorologiques.

Pour changer de carte: cliquez sur les boutons verts avec une croix noire pour zoomer, sur le bouton vert avec un tiret pour effectuer un zoom arrière, ou sur les flèches vertes pour les cartes adjacentes.


METAR-TAF: